FW7029 Weather Reports


Display with metric or nautical units.
time (UTC)temp
F
wind
direction
speed
MPH
gust
MPH
rain 1hr
in
rain 24hr
in
rain mn
in
humidity
%
barometer
mb
20230129222645 2 35 4.0 5.0 0.00 0.00 0.00 87 1011.4
20230129222144 2 34 3.0 3.0 0.00 0.00 0.00 87 1011.4
20230129221644 2 314 7.0 7.0 0.00 0.00 0.00 88 1011.2
20230129221143 3 313 6.0 8.0 0.00 0.00 0.00 87 1011.4
20230129220643 3 356 3.0 5.0 0.00 0.00 0.00 88 1011.4
20230129220142 3 30 3.0 3.0 0.00 0.00 0.00 88 1011.4
20230129215641 3 35 4.0 7.0 0.00 0.00 0.00 88 1011.1
20230129215139 3 1 3.0 5.0 0.00 0.00 0.00 88 1011.6
20230129214638 3 19 7.0 8.0 0.00 0.00 0.00 88 1011.1
20230129214138 3 37 4.0 5.0 0.00 0.00 0.00 88 1011.0
20230129213636 3 71 2.0 2.0 0.00 0.00 0.00 88 1010.9
20230129213135 3 44 3.0 3.0 0.00 0.00 0.00 88 1010.5
20230129212634 3 339 4.0 5.0 0.00 0.00 0.00 88 1010.9
20230129212133 3 8 6.0 7.0 0.00 0.00 0.00 88 1010.5
20230129211631 3 7 5.0 7.0 0.00 0.00 0.00 88 1010.8
20230129211130 3 329 3.0 3.0 0.00 0.00 0.00 88 1010.3
20230129210628 3 36 2.0 3.0 0.00 0.00 0.00 88 1010.5
20230129210127 3 299 2.0 3.0 0.00 0.00 0.00 88 1010.3
20230129205626 3 37 3.0 7.0 0.00 0.00 0.00 88 1010.4
20230129205125 3 9 6.0 7.0 0.00 0.00 0.00 88 1010.1
20230129204625 4 333 5.0 6.0 0.00 0.00 0.00 88 1010.4
20230129204124 4 64 3.0 3.0 0.00 0.00 0.00 88 1010.2
20230129203623 4 304 2.0 2.0 0.00 0.00 0.00 88 1010.4
20230129203122 4 29 3.0 5.0 0.00 0.00 0.00 88 1010.3
20230129202621 3 19 3.0 3.0 0.00 0.00 0.00 88 1010.2
20230129202119 3 295 5.0 6.0 0.00 0.00 0.00 88 1010.3
20230129201618 4 312 6.0 7.0 0.00 0.00 0.00 88 1010.2
20230129201118 3 338 4.0 6.0 0.00 0.00 0.00 88 1010.4
20230129200617 3 301 7.0 8.0 0.00 0.00 0.00 88 1010.4
20230129200116 4 338 8.0 9.0 0.00 0.00 0.00 88 1010.3
20230129195616 5 336 3.0 3.0 0.00 0.00 0.00 88 1010.3
20230129195115 4 303 4.0 5.0 0.00 0.00 0.00 88 1010.1
20230129194615 4 40 2.0 3.0 0.00 0.00 0.00 88 1010.5
20230129194115 4 62 3.0 5.0 0.00 0.00 0.00 88 1010.5
20230129193615 4 335 5.0 6.0 0.00 0.00 0.00 88 1010.4
20230129193114 4 337 6.0 8.0 0.00 0.00 0.00 88 1010.5
20230129192613 4 12 3.0 3.0 0.00 0.00 0.00 88 1010.5
20230129192112 4 318 5.0 7.0 0.00 0.00 0.00 88 1010.7
20230129191611 4 53 3.0 5.0 0.00 0.00 0.00 88 1010.7
20230129191110 4 31 2.0 3.0 0.00 0.00 0.00 88 1010.5
20230129190609 4 57 2.0 2.0 0.00 0.00 0.00 88 1010.4
20230129190109 4 310 5.0 7.0 0.00 0.00 0.00 88 1010.8
20230129185609 4 310 4.0 7.0 0.00 0.00 0.00 88 1010.9
20230129185108 4 301 3.0 3.0 0.00 0.00 0.00 88 1010.9
20230129184606 4 339 3.0 3.0 0.00 0.00 0.00 88 1010.7
20230129184104 4 49 3.0 5.0 0.00 0.00 0.00 88 1010.7
20230129183604 4 305 5.0 6.0 0.00 0.00 0.00 88 1011.0
20230129183102 4 39 2.0 2.0 0.00 0.00 0.00 88 1010.9
20230129182602 4 328 5.0 5.0 0.00 0.00 0.00 88 1011.0
20230129182102 4 9 3.0 3.0 0.00 0.00 0.00 88 1011.4
20230129181559 4 335 3.0 3.0 0.00 0.00 0.00 88 1011.2
20230129181057 3 293 5.0 6.0 0.00 0.00 0.00 88 1011.2
20230129180556 4 309 5.0 6.0 0.00 0.00 0.00 88 1011.2
20230129180055 3 295 2.0 3.0 0.00 0.00 0.00 88 1011.2
20230129175555 4 335 3.0 3.0 0.00 0.00 0.00 88 1011.1
20230129175053 4 38 3.0 5.0 0.00 0.00 0.00 88 1011.4
20230129174551 3 25 4.0 5.0 0.00 0.00 0.00 88 1011.2
20230129174051 3 309 4.0 6.0 0.00 0.00 0.00 88 1011.4
20230129173550 3 4 4.0 5.0 0.00 0.00 0.00 88 1011.5
20230129173050 3 280 3.0 5.0 0.00 0.00 0.00 88 1011.5
20230129172548 3 309 7.0 10.0 0.00 0.00 0.00 88 1011.1
20230129172048 3 295 4.0 6.0 0.00 0.00 0.00 88 1011.1
20230129171548 3 273 5.0 8.0 0.00 0.00 0.00 88 1011.4
20230129171047 3 29 5.0 5.0 0.00 0.00 0.00 88 1011.1
20230129170548 3 62 5.0 5.0 0.00 0.00 0.00 88 1011.4
20230129170047 3 291 8.0 9.0 0.00 0.00 0.00 88 1011.4
20230129165548 4 327 4.0 6.0 0.00 0.00 0.00 88 1011.0
20230129165047 3 319 3.0 5.0 0.00 0.00 0.00 88 1011.2
20230129164545 3 312 4.0 5.0 0.00 0.00 0.00 88 1011.1
20230129164044 3 285 3.0 5.0 0.00 0.00 0.00 88 1010.9
20230129163544 3 357 3.0 3.0 0.00 0.00 0.00 88 1011.0
20230129163044 3 31 3.0 3.0 0.00 0.00 0.00 88 1011.0
20230129162543 4 345 7.0 8.0 0.00 0.00 0.00 88 1010.9
20230129162042 4 33 3.0 3.0 0.00 0.00 0.00 88 1011.0
20230129161540 4 57 2.0 2.0 0.00 0.00 0.00 88 1010.9
20230129161041 4 319 3.0 3.0 0.00 0.00 0.00 88 1010.9
20230129160539 4 25 4.0 5.0 0.00 0.00 0.00 88 1010.9
20230129160037 4 40 1.0 2.0 0.00 0.00 0.00 88 1010.8
20230129155535 4 40 2.0 2.0 0.00 0.00 0.00 88 1011.1
20230129155034 4 23 2.0 2.0 0.00 0.00 0.00 88 1010.9
20230129154534 4 29 2.0 2.0 0.00 0.00 0.00 88 1010.9
20230129154033 4 357 2.0 3.0 0.00 0.00 0.00 88 1010.8
20230129153530 4 2 2.0 2.0 0.00 0.00 0.00 88 1010.8
20230129153030 4 24 2.0 2.0 0.00 0.00 0.00 88 1011.0
20230129152529 4 336 4.0 5.0 0.00 0.00 0.00 88 1011.1
20230129152028 4 39 3.0 3.0 0.00 0.00 0.00 88 1010.8
20230129151527 4 22 3.0 3.0 0.00 0.00 0.00 88 1010.7
20230129151027 4 71 2.0 3.0 0.00 0.00 0.00 88 1010.8
20230129150527 4 43 2.0 2.0 0.00 0.00 0.00 88 1010.8
20230129150026 4 13 3.0 3.0 0.00 0.00 0.00 88 1010.7
20230129145525 4 349 4.0 5.0 0.00 0.00 0.00 88 1010.7
20230129145025 4 35 1.0 1.0 0.00 0.00 0.00 88 1010.8
20230129144523 4 75 0.0 1.0 0.00 0.00 0.00 88 1010.7
20230129144023 4 311 4.0 5.0 0.00 0.00 0.00 88 1010.5
20230129143521 4 25 5.0 7.0 0.00 0.00 0.00 88 1010.3
20230129143021 4 66 1.0 1.0 0.00 0.00 0.00 88 1010.3
20230129142520 4 11 3.0 3.0 0.00 0.00 0.00 88 1010.2
20230129142018 4 11 3.0 3.0 0.00 0.00 0.00 88 1010.3
20230129141517 4 42 3.0 3.0 0.00 0.00 0.00 88 1010.3
20230129141017 4 359 3.0 3.0 0.00 0.00 0.00 88 1010.1
20230129140517 4 67 2.0 2.0 0.00 0.00 0.00 88 1010.3
20230129140015 4 43 1.0 2.0 0.00 0.00 0.00 88 1009.9
20230129135513 4 45 4.0 5.0 0.00 0.00 0.00 88 1009.9
20230129135012 5 304 5.0 6.0 0.00 0.00 0.00 88 1009.8
20230129134511 5 32 6.0 7.0 0.00 0.00 0.00 88 1009.8
20230129134011 5 46 2.0 2.0 0.00 0.00 0.00 89 1009.7
20230129133510 5 49 4.0 5.0 0.00 0.00 0.00 89 1009.7
20230129133009 5 347 3.0 5.0 0.00 0.00 0.00 89 1009.5
20230129132507 5 41 4.0 5.0 0.00 0.00 0.00 89 1009.6
20230129132007 5 13 2.0 3.0 0.00 0.00 0.00 89 1009.8
20230129131506 6 29 1.0 2.0 0.00 0.00 0.00 89 1009.5
20230129131004 6 24 1.0 2.0 0.00 0.00 0.00 89 1009.5
20230129130503 6 64 2.0 2.0 0.00 0.00 0.00 89 1009.5
20230129130002 6 36 2.0 2.0 0.00 0.00 0.00 89 1009.6
20230129125502 6 46 2.0 2.0 0.00 0.00 0.00 89 1009.2
20230129125001 6 50 1.0 2.0 0.00 0.00 0.00 89 1009.2
20230129124459 6 332 3.0 5.0 0.00 0.00 0.00 89 1009.5
20230129123959 6 27 2.0 3.0 0.00 0.00 0.00 89 1009.5
20230129123458 6 344 2.0 2.0 0.00 0.00 0.00 89 1009.5
20230129122957 6 342 3.0 3.0 0.00 0.00 0.00 89 1009.5
20230129122456 7 4 3.0 5.0 0.00 0.00 0.00 89 1009.4
20230129121956 7 78 1.0 1.0 0.00 0.00 0.00 89 1009.5
20230129121454 7 51 2.0 2.0 0.00 0.00 0.00 89 1009.5
20230129120953 7 0 2.0 2.0 0.00 0.00 0.00 89 1009.2
20230129120452 7 38 4.0 5.0 0.00 0.00 0.00 89 1009.6
20230129115952 7 14 3.0 3.0 0.00 0.00 0.00 90 1009.6
20230129115451 7 50 3.0 3.0 0.00 0.00 0.00 90 1009.7
20230129114951 7 45 2.0 2.0 0.00 0.00 0.00 90 1009.7
20230129114449 8 353 5.0 6.0 0.00 0.00 0.00 90 1009.5
20230129113947 8 47 3.0 3.0 0.00 0.00 0.00 90 1009.7
20230129113447 7 20 2.0 2.0 0.00 0.00 0.00 90 1009.5
20230129112946 8 53 3.0 3.0 0.00 0.00 0.00 90 1009.6
20230129112445 8 50 1.0 1.0 0.00 0.00 0.00 90 1009.7
20230129111945 8 48 3.0 3.0 0.00 0.00 0.00 90 1009.4
20230129111443 8 65 0.0 1.0 0.00 0.00 0.00 90 1009.6
20230129110941 8 25 4.0 5.0 0.00 0.00 0.00 90 1009.4
20230129110440 8 43 1.0 2.0 0.00 0.00 0.00 90 1009.2
20230129105940 8 74 1.0 1.0 0.00 0.00 0.00 90 1009.1
20230129105438 8 95 1.0 1.0 0.00 0.00 0.00 90 1009.4
20230129104938 8 72 3.0 3.0 0.00 0.00 0.00 90 1009.7
20230129104438 8 70 1.0 2.0 0.00 0.00 0.00 90 1009.7
20230129103937 8 60 0.0 0.0 0.00 0.00 0.00 90 1009.8
20230129103436 8 80 0.0 1.0 0.00 0.00 0.00 90 1009.6
20230129102935 8 70 1.0 2.0 0.00 0.00 0.00 90 1009.8
20230129102435 8 64 1.0 1.0 0.00 0.00 0.00 90 1009.9
20230129101934 8 76 0.0 0.0 0.00 0.00 0.00 90 1009.8
20230129101433 8 65 1.0 2.0 0.00 0.00 0.00 90 1009.8
20230129100932 8 33 2.0 2.0 0.00 0.00 0.00 90 1009.5
20230129100431 8 20 3.0 3.0 0.00 0.00 0.00 90 1009.9
20230129095930 8 54 1.0 1.0 0.00 0.00 0.00 90 1010.1
20230129095429 9 43 2.0 3.0 0.00 0.00 0.00 90 1009.9
20230129094929 9 76 0.0 0.0 0.00 0.00 0.00 90 1009.9
20230129094429 9 23 1.0 1.0 0.00 0.00 0.00 90 1009.7
20230129093927 9 64 1.0 2.0 0.00 0.00 0.00 90 1009.8
20230129093426 9 84 3.0 3.0 0.00 0.00 0.00 90 1010.2
20230129092926 9 66 2.0 2.0 0.00 0.00 0.00 90 1010.2
20230129092424 9 74 0.0 1.0 0.00 0.00 0.00 90 1010.2
20230129091925 9 29 3.0 3.0 0.00 0.00 0.00 90 1010.2
20230129091423 9 34 3.0 5.0 0.00 0.00 0.00 90 1010.5
20230129090922 9 37 2.0 2.0 0.00 0.00 0.00 90 1010.4
20230129090422 9 30 1.0 1.0 0.00 0.00 0.00 90 1010.4
20230129085920 9 76 2.0 3.0 0.00 0.00 0.00 90 1010.5
20230129085419 9 73 0.0 1.0 0.00 0.00 0.00 90 1010.9
20230129084918 9 49 1.0 2.0 0.00 0.00 0.00 90 1010.5
20230129084417 9 60 2.0 2.0 0.00 0.00 0.00 90 1010.7
20230129083916 9 71 1.0 1.0 0.00 0.00 0.00 90 1010.7
20230129083415 9 73 2.0 2.0 0.00 0.00 0.00 90 1010.7
20230129082915 9 33 1.0 1.0 0.00 0.00 0.00 90 1010.5
20230129082414 9 70 2.0 2.0 0.00 0.00 0.00 90 1010.4
20230129081913 9 25 3.0 3.0 0.00 0.00 0.00 90 1010.5
20230129081412 9 54 1.0 3.0 0.00 0.00 0.00 90 1010.8
20230129080911 9 96 1.0 1.0 0.00 0.00 0.00 90 1010.8
20230129080411 9 56 2.0 2.0 0.00 0.00 0.00 90 1010.7
20230129075911 9 72 1.0 2.0 0.00 0.00 0.00 90 1010.8
20230129075411 10 45 1.0 2.0 0.00 0.00 0.00 90 1011.0
20230129074910 10 70 1.0 1.0 0.00 0.00 0.00 90 1010.8
20230129074410 9 70 1.0 1.0 0.00 0.00 0.00 90 1011.0
20230129073909 10 112 2.0 2.0 0.00 0.00 0.00 90 1011.2
20230129073408 10 78 2.0 2.0 0.00 0.00 0.00 90 1011.1
20230129072907 10 108 1.0 2.0 0.00 0.00 0.00 90 1011.1
20230129072407 10 104 2.0 2.0 0.00 0.00 0.00 90 1010.9
20230129071906 10 100 1.0 2.0 0.00 0.00 0.00 90 1011.0
20230129071407 10 87 1.0 2.0 0.00 0.00 0.00 90 1010.9
20230129070905 10 50 2.0 3.0 0.00 0.00 0.00 91 1011.0
20230129070405 10 84 2.0 2.0 0.00 0.00 0.00 91 1011.4
20230129065904 10 66 1.0 1.0 0.00 0.00 0.00 91 1011.2
20230129065403 10 56 3.0 3.0 0.00 0.00 0.00 91 1011.4
20230129064902 10 58 2.0 2.0 0.00 0.00 0.00 91 1011.4
20230129064402 10 53 1.0 2.0 0.00 0.00 0.00 91 1011.2
20230129063900 11 56 4.0 6.0 0.00 0.00 0.00 91 1011.2
20230129063400 11 77 1.0 2.0 0.00 0.00 0.00 91 1011.4
20230129062859 11 61 2.0 2.0 0.00 0.00 0.00 91 1011.5
20230129062358 11 49 1.0 2.0 0.00 0.00 0.00 91 1011.7
20230129061858 11 74 2.0 2.0 0.00 0.00 0.00 91 1011.5
20230129061358 11 101 1.0 2.0 0.00 0.00 0.00 91 1011.8
20230129060857 11 66 1.0 2.0 0.00 0.00 0.00 91 1011.7
20230129060356 12 55 2.0 2.0 0.00 0.00 0.00 91 1011.8
20230129055856 12 79 0.0 0.0 0.00 0.00 0.00 91 1012.0
20230129055354 12 42 1.0 2.0 0.00 0.00 0.00 91 1012.1
20230129054853 11 42 3.0 5.0 0.00 0.00 0.00 91 1012.0
20230129054353 12 40 4.0 6.0 0.00 0.00 0.00 91 1012.2
20230129053853 12 37 4.0 5.0 0.00 0.00 0.00 91 1012.1
20230129053353 12 26 4.0 6.0 0.00 0.00 0.00 91 1012.2
20230129052853 12 16 3.0 3.0 0.00 0.00 0.00 91 1011.8
20230129052352 12 348 4.0 5.0 0.00 0.00 0.00 91 1012.1
20230129051852 13 335 4.0 5.0 0.00 0.00 0.00 91 1012.2
20230129051352 12 76 2.0 2.0 0.00 0.00 0.00 91 1012.3
20230129050850 13 339 2.0 3.0 0.00 0.00 0.00 91 1012.3
20230129050350 13 357 3.0 3.0 0.00 0.00 0.00 92 1012.2
20230129045849 13 319 5.0 6.0 0.00 0.00 0.00 91 1012.1
20230129045347 13 359 5.0 7.0 0.00 0.00 0.00 92 1012.0
20230129044847 13 14 5.0 6.0 0.00 0.00 0.00 91 1012.1
20230129044346 13 336 6.0 8.0 0.00 0.00 0.00 92 1012.0
20230129043846 13 327 2.0 3.0 0.00 0.00 0.00 92 1012.0
20230129043345 13 309 4.0 5.0 0.00 0.00 0.00 92 1012.0
20230129042843 14 33 4.0 7.0 0.00 0.00 0.00 92 1012.0
20230129042341 14 33 2.0 2.0 0.00 0.00 0.00 92 1011.8
20230129041840 14 309 3.0 3.0 0.00 0.00 0.00 92 1011.8
20230129041339 15 52 2.0 3.0 0.00 0.00 0.00 92 1012.0
20230129040839 15 21 2.0 3.0 0.00 0.00 0.00 92 1011.8
20230129040339 15 19 5.0 5.0 0.00 0.00 0.00 92 1011.8
20230129035838 15 52 3.0 3.0 0.00 0.00 0.00 92 1011.6
20230129035336 15 72 6.0 8.0 0.00 0.00 0.00 92 1011.6
20230129034836 15 342 7.0 8.0 0.00 0.00 0.00 92 1011.4
20230129034335 15 342 4.0 6.0 0.00 0.00 0.00 92 1011.7
20230129033835 15 355 6.0 7.0 0.00 0.00 0.00 92 1011.6
20230129033335 16 28 6.0 8.0 0.00 0.00 0.00 92 1011.5
20230129032833 16 350 2.0 3.0 0.00 0.00 0.00 93 1011.4
20230129032333 16 20 4.0 5.0 0.00 0.00 0.00 93 1011.2
20230129031832 16 356 8.0 9.0 0.00 0.00 0.00 93 1011.2
20230129031331 16 9 4.0 5.0 0.00 0.00 0.00 93 1011.1
20230129030831 16 30 6.0 7.0 0.00 0.00 0.00 93 1011.1
20230129030331 17 65 2.0 3.0 0.00 0.00 0.00 93 1010.9
20230129025829 17 326 6.0 9.0 0.00 0.00 0.00 93 1010.7
20230129025327 17 14 5.0 6.0 0.00 0.00 0.00 93 1010.5
20230129024825 18 269 5.0 6.0 0.00 0.00 0.00 93 1010.4
20230129024325 18 339 3.0 5.0 0.00 0.00 0.00 93 1010.1
20230129023823 19 319 9.0 10.0 0.00 0.00 0.00 93 1010.1
20230129023321 19 36 3.0 3.0 0.00 0.00 0.00 94 1010.1
20230129022820 19 19 4.0 5.0 0.00 0.00 0.00 94 1009.7
20230129022320 19 68 2.0 5.0 0.00 0.00 0.00 94 1009.6
20230129021819 19 51 1.0 2.0 0.00 0.00 0.00 94 1009.5
20230129021319 19 66 1.0 1.0 0.00 0.00 0.00 94 1009.5
20230129020818 19 58 3.0 5.0 0.00 0.00 0.00 94 1009.4
20230129020316 19 67 1.0 1.0 0.00 0.00 0.00 94 1009.4
20230129015816 20 29 5.0 8.0 0.00 0.00 0.00 94 1009.2
20230129015315 20 27 6.0 7.0 0.00 0.00 0.00 94 1008.9
20230129014814 20 63 3.0 3.0 0.00 0.00 0.00 94 1008.9
20230129014314 21 18 6.0 8.0 0.00 0.00 0.00 94 1008.8
20230129013813 21 64 1.0 2.0 0.00 0.00 0.00 94 1008.9
20230129013311 21 67 1.0 2.0 0.00 0.00 0.00 94 1008.4
20230129012810 21 76 3.0 3.0 0.00 0.00 0.00 94 1008.4
20230129012308 21 64 1.0 2.0 0.00 0.00 0.00 94 1008.4
20230129011808 21 26 4.0 5.0 0.00 0.00 0.00 94 1008.2
20230129011308 22 31 3.0 5.0 0.00 0.00 0.00 94 1008.3
20230129010806 21 42 1.0 2.0 0.00 0.00 0.00 94 1008.2
20230129010304 22 39 4.0 5.0 0.00 0.00 0.00 95 1008.3
20230129005804 22 51 3.0 5.0 0.00 0.00 0.00 95 1007.9
20230129005305 22 83 2.0 3.0 0.00 0.00 0.00 95 1007.7
20230129004802 22 35 1.0 2.0 0.00 0.00 0.00 95 1007.7
20230129004300 22 95 5.0 6.0 0.00 0.00 0.00 95 1007.6
20230129003800 23 57 2.0 3.0 0.00 0.00 0.00 95 1007.2
20230129003258 23 82 1.0 2.0 0.00 0.00 0.00 95 1006.9
20230129002758 23 21 4.0 6.0 0.00 0.00 0.00 95 1006.9
20230129002256 23 81 5.0 8.0 0.00 0.00 0.00 94 1006.6
20230129001756 23 57 3.0 3.0 0.00 0.00 0.00 94 1006.6
20230129001255 23 38 4.0 8.0 0.00 0.00 0.00 94 1006.8
20230129000755 23 109 2.0 3.0 0.00 0.00 0.00 93 1006.6
20230129000254 24 18 4.0 7.0 0.00 0.00 0.00 93 1006.4
20230128235753 24 89 3.0 5.0 0.00 0.00 0.00 93 1006.3
20230128235251 24 78 4.0 6.0 0.00 0.00 0.00 92 1006.2
20230128234750 24 63 3.0 6.0 0.00 0.00 0.00 92 1005.9
20230128234250 25 70 2.0 3.0 0.00 0.00 0.00 91 1005.8
20230128233749 25 84 4.0 6.0 0.00 0.00 0.00 90 1005.8
20230128233248 26 66 1.0 2.0 0.00 0.00 0.00 89 1005.5
20230128232746 26 54 3.0 3.0 0.00 0.00 0.00 89 1005.7
20230128232244 26 66 2.0 3.0 0.00 0.00 0.00 89 1005.8
20230128231743 26 27 3.0 5.0 0.00 0.00 0.00 88 1005.5
20230128231242 26 70 5.0 6.0 0.00 0.00 0.00 88 1005.7
20230128230742 27 76 3.0 5.0 0.00 0.00 0.00 87 1005.7
20230128230241 27 10 6.0 9.0 0.00 0.00 0.00 84 1005.3
20230128225740 28 78 5.0 7.0 0.00 0.00 0.00 82 1005.2
20230128225239 28 80 1.0 2.0 0.00 0.00 0.00 83 1005.1
20230128224738 28 52 3.0 3.0 0.00 0.00 0.00 82 1005.0
20230128224236 28 108 3.0 3.0 0.00 0.00 0.00 81 1004.7
20230128223735 28 68 1.0 2.0 0.00 0.00 0.00 82 1004.7
20230128223234 28 105 4.0 6.0 0.00 0.00 0.00 82 1004.7